createdAt,value
2018-03-25T00:02:05.456Z,22.57
2018-03-25T00:04:34.508Z,23.03
2018-03-25T00:07:02.767Z,22.40
2018-03-25T00:09:31.085Z,22.92
2018-03-25T00:12:00.116Z,25.60
2018-03-25T00:14:28.383Z,22.50
2018-03-25T00:16:56.672Z,22.43
2018-03-25T00:19:25.761Z,22.10
2018-03-25T00:21:54.028Z,22.00
2018-03-25T00:24:22.311Z,21.73
2018-03-25T00:26:50.580Z,21.57
2018-03-25T00:29:18.849Z,22.67
2018-03-25T00:31:47.867Z,22.90
2018-03-25T00:34:16.144Z,22.07
2018-03-25T00:36:44.422Z,22.83
2018-03-25T00:39:12.737Z,21.67
2018-03-25T00:41:41.063Z,21.67
2018-03-25T00:44:09.341Z,22.63
2018-03-25T00:46:37.610Z,22.73
2018-03-25T00:49:05.869Z,22.70
2018-03-25T00:51:34.166Z,23.17
2018-03-25T00:54:02.442Z,21.03
2018-03-25T00:56:30.719Z,21.93
2018-03-25T00:58:59.037Z,21.37
2018-03-25T01:01:27.295Z,22.70
2018-03-25T01:03:55.561Z,21.50
2018-03-25T01:06:23.888Z,22.63
2018-03-25T01:08:52.186Z,22.00
2018-03-25T01:11:21.200Z,21.53
2018-03-25T01:13:49.549Z,23.00
2018-03-25T01:16:17.901Z,22.67
2018-03-25T01:18:46.182Z,22.23
2018-03-25T01:21:14.451Z,22.60
2018-03-25T01:23:42.693Z,21.63
2018-03-25T01:26:10.972Z,22.63
2018-03-25T01:28:39.257Z,22.63
2018-03-25T01:31:07.557Z,21.63
2018-03-25T01:33:35.829Z,21.97
2018-03-25T01:36:04.081Z,21.97
2018-03-25T01:38:32.344Z,22.27
2018-03-25T01:41:00.618Z,22.17
2018-03-25T01:43:28.881Z,22.43
2018-03-25T01:45:57.908Z,22.13
2018-03-25T01:48:26.184Z,21.87
2018-03-25T01:50:54.443Z,22.20
2018-03-25T01:53:22.719Z,21.27
2018-03-25T01:55:50.972Z,22.27
2018-03-25T01:58:19.236Z,23.60
2018-03-25T02:00:47.519Z,22.47
2018-03-25T02:03:15.771Z,22.10
2018-03-25T02:05:44.036Z,22.97
2018-03-25T02:08:12.269Z,22.60
2018-03-25T02:10:40.550Z,24.13
2018-03-25T02:13:08.807Z,22.17
2018-03-25T02:15:37.853Z,23.80
2018-03-25T02:18:06.098Z,23.87
2018-03-25T02:20:34.848Z,23.27
2018-03-25T02:23:03.104Z,22.10
2018-03-25T02:25:31.373Z,21.83
2018-03-25T02:27:59.664Z,23.47
2018-03-25T02:30:27.938Z,23.20
2018-03-25T02:32:56.207Z,22.40
2018-03-25T02:35:24.478Z,23.63
2018-03-25T02:37:52.758Z,23.80
2018-03-25T02:40:21.026Z,23.77
2018-03-25T02:42:49.309Z,24.50
2018-03-25T02:45:17.586Z,22.80
2018-03-25T02:47:45.848Z,23.70
2018-03-25T02:50:14.109Z,23.37
2018-03-25T02:52:42.375Z,21.57
2018-03-25T02:55:10.645Z,22.77
2018-03-25T02:57:38.927Z,23.50
2018-03-25T03:00:07.209Z,22.17
2018-03-25T03:02:35.542Z,22.87
2018-03-25T03:05:03.812Z,23.13
2018-03-25T03:07:32.074Z,22.23
2018-03-25T03:10:00.340Z,21.70
2018-03-25T03:12:28.600Z,22.70
2018-03-25T03:14:56.933Z,23.43
2018-03-25T03:17:25.948Z,23.33
2018-03-25T03:19:54.222Z,23.50
2018-03-25T03:22:22.479Z,23.40
2018-03-25T03:24:50.749Z,22.50
2018-03-25T03:27:19.789Z,22.53
2018-03-25T03:29:48.040Z,24.47
2018-03-25T03:32:16.310Z,24.07
2018-03-25T03:34:44.584Z,23.40
2018-03-25T03:37:13.609Z,23.57
2018-03-25T03:39:41.956Z,22.90
2018-03-25T03:42:10.251Z,23.50
2018-03-25T03:44:38.516Z,23.07
2018-03-25T03:47:07.554Z,23.33
2018-03-25T03:49:35.802Z,22.57
2018-03-25T03:52:04.064Z,22.97
2018-03-25T03:54:32.329Z,23.90
2018-03-25T03:57:01.356Z,23.47
2018-03-25T03:59:29.624Z,23.17
2018-03-25T04:01:57.884Z,23.87
2018-03-25T04:04:26.990Z,23.33
2018-03-25T04:06:55.269Z,22.60
2018-03-25T04:09:23.524Z,22.33
2018-03-25T04:11:52.539Z,23.80
2018-03-25T04:14:20.794Z,23.67
2018-03-25T04:16:49.821Z,23.70
2018-03-25T04:19:18.099Z,24.13
2018-03-25T04:21:46.345Z,23.23
2018-03-25T04:24:15.397Z,23.53
2018-03-25T04:26:43.628Z,22.90
2018-03-25T04:29:11.891Z,22.70
2018-03-25T04:31:40.221Z,24.53
2018-03-25T04:34:08.512Z,24.27
2018-03-25T04:36:36.762Z,22.93
2018-03-25T04:39:05.021Z,22.43
2018-03-25T04:41:33.271Z,22.93
2018-03-25T04:44:01.536Z,24.00
2018-03-25T04:46:29.835Z,22.63
2018-03-25T04:48:58.115Z,23.27
2018-03-25T04:51:26.377Z,23.30
2018-03-25T04:53:55.412Z,23.10
2018-03-25T04:56:24.426Z,24.30
2018-03-25T04:58:52.694Z,24.67
2018-03-25T05:01:20.948Z,24.30
2018-03-25T05:03:49.204Z,24.47
2018-03-25T05:06:17.465Z,23.77
2018-03-25T05:08:45.719Z,23.57
2018-03-25T05:11:14.750Z,23.90
2018-03-25T05:13:43.001Z,23.13
2018-03-25T05:16:12.033Z,23.87
2018-03-25T05:18:40.288Z,23.30
2018-03-25T05:21:08.560Z,22.83
2018-03-25T05:23:36.817Z,23.50
2018-03-25T05:26:05.844Z,23.57
2018-03-25T05:28:34.089Z,23.77
2018-03-25T05:31:03.129Z,24.07
2018-03-25T05:33:31.391Z,23.30
2018-03-25T05:35:59.635Z,24.70
2018-03-25T05:38:28.660Z,25.43
2018-03-25T05:40:56.905Z,25.37
2018-03-25T05:43:25.955Z,25.07
2018-03-25T05:45:54.209Z,23.77
2018-03-25T05:48:22.486Z,24.03
2018-03-25T05:50:50.731Z,24.57
2018-03-25T05:53:19.776Z,24.37
2018-03-25T05:55:48.032Z,25.13
2018-03-25T05:58:16.352Z,24.13
2018-03-25T06:00:44.588Z,24.50
2018-03-25T06:03:12.848Z,25.10
2018-03-25T06:05:41.128Z,24.33
2018-03-25T06:08:09.402Z,24.30
2018-03-25T06:10:37.670Z,23.37
2018-03-25T06:13:05.957Z,24.53
2018-03-25T06:15:34.253Z,24.80
2018-03-25T06:18:02.512Z,25.17
2018-03-25T06:20:30.775Z,25.00
2018-03-25T06:22:59.054Z,24.60
2018-03-25T06:25:27.328Z,24.23
2018-03-25T06:27:55.592Z,25.67
2018-03-25T06:30:24.621Z,25.43
2018-03-25T06:32:52.882Z,25.60
2018-03-25T06:35:21.186Z,25.63
2018-03-25T06:37:49.432Z,25.37
2018-03-25T06:40:17.720Z,26.13
2018-03-25T06:42:45.988Z,26.90
2018-03-25T06:45:14.261Z,26.77
2018-03-25T06:47:42.509Z,27.10
2018-03-25T06:50:10.780Z,26.23
2018-03-25T06:52:39.033Z,27.63
2018-03-25T06:55:07.299Z,27.70
2018-03-25T06:57:35.569Z,27.30
2018-03-25T07:00:03.820Z,26.17
2018-03-25T07:02:32.090Z,27.17
2018-03-25T07:05:00.376Z,27.33
2018-03-25T07:07:28.675Z,27.10
2018-03-25T07:09:56.968Z,27.67
2018-03-25T07:12:25.251Z,27.90
2018-03-25T07:14:53.543Z,26.13
2018-03-25T07:17:21.866Z,29.17
2018-03-25T07:19:50.122Z,27.63
2018-03-25T07:22:18.417Z,27.13
2018-03-25T07:24:46.686Z,28.20
2018-03-25T07:27:15.015Z,28.67
2018-03-25T07:29:43.275Z,27.73
2018-03-25T07:32:12.305Z,28.30
2018-03-25T07:34:41.360Z,28.03
2018-03-25T07:37:09.678Z,29.07
2018-03-25T07:39:38.998Z,27.43
2018-03-25T07:42:07.254Z,27.87
2018-03-25T07:44:36.312Z,26.33
2018-03-25T07:47:05.341Z,27.70
2018-03-25T07:49:34.372Z,27.10
2018-03-25T07:52:02.638Z,27.33
2018-03-25T07:54:30.927Z,26.87
2018-03-25T07:56:59.214Z,26.13
2018-03-25T07:59:28.266Z,26.73
2018-03-25T08:01:57.328Z,27.37
2018-03-25T08:04:25.604Z,26.97
2018-03-25T08:06:53.894Z,26.70
2018-03-25T08:09:22.145Z,26.63
2018-03-25T08:11:50.417Z,26.97
2018-03-25T08:14:19.467Z,26.20
2018-03-25T08:16:47.736Z,26.93
2018-03-25T08:19:16.022Z,27.10
2018-03-25T08:21:44.280Z,26.27
2018-03-25T08:24:13.380Z,28.10
2018-03-25T08:26:41.678Z,26.43
2018-03-25T08:29:09.973Z,26.27
2018-03-25T08:31:38.996Z,26.97
2018-03-25T08:34:07.267Z,26.20
2018-03-25T08:36:35.557Z,27.73
2018-03-25T08:39:03.826Z,25.53
2018-03-25T08:41:32.104Z,26.67
2018-03-25T08:44:00.377Z,27.37
2018-03-25T08:46:28.657Z,30.23
2018-03-25T08:48:56.926Z,27.77
2018-03-25T08:51:25.209Z,25.47
2018-03-25T08:53:53.482Z,27.43
2018-03-25T08:56:21.765Z,26.43
2018-03-25T08:58:50.073Z,27.30
2018-03-25T09:01:18.407Z,27.37
2018-03-25T09:03:46.805Z,28.30
2018-03-25T09:06:15.198Z,27.20
2018-03-25T09:08:44.330Z,26.83
2018-03-25T09:11:12.831Z,27.27
2018-03-25T09:13:41.126Z,26.67
2018-03-25T09:16:09.501Z,27.57
2018-03-25T09:18:37.909Z,26.40
2018-03-25T09:21:06.168Z,28.40
2018-03-25T09:23:34.508Z,28.00
2018-03-25T09:26:02.907Z,26.20
2018-03-25T09:28:31.196Z,27.73
2018-03-25T09:30:59.535Z,27.17
2018-03-25T09:33:27.807Z,27.63
2018-03-25T09:35:56.216Z,27.73
2018-03-25T09:38:24.599Z,26.23
2018-03-25T09:40:52.980Z,26.43
2018-03-25T09:43:22.093Z,25.83
2018-03-25T09:45:50.590Z,27.27
2018-03-25T09:48:18.840Z,26.03
2018-03-25T09:50:48.044Z,27.23
2018-03-25T09:53:16.354Z,26.00
2018-03-25T09:55:46.326Z,26.53
2018-03-25T09:58:14.754Z,25.87
2018-03-25T10:00:53.905Z,27.10
2018-03-25T10:03:30.946Z,24.97
2018-03-25T10:06:01.322Z,25.93
2018-03-25T10:08:30.081Z,26.33
2018-03-25T10:10:58.379Z,25.20
2018-03-25T10:13:26.751Z,27.07
2018-03-25T10:15:55.034Z,24.47
2018-03-25T10:18:24.120Z,26.70
2018-03-25T10:20:53.521Z,25.67
2018-03-25T10:23:22.861Z,26.47
2018-03-25T10:25:51.120Z,26.07
2018-03-25T10:28:20.971Z,23.70
2018-03-25T10:30:49.306Z,25.97
2018-03-25T10:33:17.572Z,27.13
2018-03-25T10:35:45.832Z,25.80
2018-03-25T10:38:14.158Z,25.07
2018-03-25T10:40:43.389Z,25.93
2018-03-25T10:43:12.562Z,24.80
2018-03-25T10:45:40.821Z,25.73
2018-03-25T10:48:10.440Z,25.37
2018-03-25T10:50:42.229Z,24.13
2018-03-25T10:53:11.851Z,24.40
2018-03-25T10:55:40.104Z,24.73
2018-03-25T10:58:08.391Z,23.70
2018-03-25T11:00:37.534Z,23.70
2018-03-25T11:03:05.842Z,24.73
2018-03-25T11:05:35.682Z,23.00
2018-03-25T11:08:04.006Z,23.43
2018-03-25T11:10:32.311Z,21.73
2018-03-25T11:13:00.599Z,22.37
2018-03-25T11:15:28.970Z,22.57
2018-03-25T11:17:57.498Z,22.10
2018-03-25T11:20:26.486Z,21.77
2018-03-25T11:22:55.955Z,22.27
2018-03-25T11:25:27.925Z,21.97
2018-03-25T11:27:57.050Z,21.53
2018-03-25T11:30:26.387Z,22.60
2018-03-25T11:32:54.732Z,21.70
2018-03-25T11:35:23.028Z,22.37
2018-03-25T11:37:51.312Z,21.63
2018-03-25T11:40:19.584Z,25.63
2018-03-25T11:42:48.114Z,25.07
2018-03-25T11:45:17.140Z,23.90
2018-03-25T11:47:45.483Z,22.70
2018-03-25T11:50:13.747Z,22.30
2018-03-25T11:52:42.879Z,22.27
2018-03-25T11:55:11.207Z,22.90
2018-03-25T11:57:39.663Z,22.43
2018-03-25T12:00:08.066Z,20.93
2018-03-25T12:02:36.562Z,20.37
2018-03-25T12:05:04.899Z,20.83
2018-03-25T12:07:33.229Z,20.87
2018-03-25T12:10:02.316Z,20.63
2018-03-25T12:12:32.241Z,19.53
2018-03-25T12:15:01.552Z,18.60
2018-03-25T12:17:30.042Z,18.33
2018-03-25T12:20:00.417Z,18.27
2018-03-25T12:22:29.231Z,18.77
2018-03-25T12:24:57.601Z,17.73
2018-03-25T12:27:26.110Z,17.17
2018-03-25T12:29:55.372Z,17.83
2018-03-25T12:32:25.347Z,17.40
2018-03-25T12:34:56.491Z,15.63
2018-03-25T12:37:25.607Z,15.90
2018-03-25T12:39:53.880Z,15.93
2018-03-25T12:42:22.217Z,16.90
2018-03-25T12:44:51.195Z,15.93
2018-03-25T12:47:21.557Z,16.97
2018-03-25T12:49:49.796Z,17.03
2018-03-25T12:52:18.916Z,16.33
2018-03-25T12:54:47.248Z,16.80
2018-03-25T12:57:15.645Z,16.07
2018-03-25T12:59:45.655Z,15.97
2018-03-25T13:02:13.977Z,15.80
2018-03-25T13:04:42.388Z,15.83
2018-03-25T13:07:10.925Z,17.97
2018-03-25T13:09:39.299Z,17.83
2018-03-25T13:12:08.449Z,16.67
2018-03-25T13:14:37.473Z,18.63
2018-03-25T13:17:07.388Z,17.43
2018-03-25T13:19:35.759Z,17.20
2018-03-25T13:22:05.289Z,16.70
2018-03-25T13:24:33.597Z,17.27
2018-03-25T13:27:04.715Z,17.57
2018-03-25T13:29:33.975Z,16.60
2018-03-25T13:32:02.358Z,16.80
2018-03-25T13:34:30.658Z,17.47
2018-03-25T13:36:59.046Z,17.57
2018-03-25T13:39:28.184Z,18.30
2018-03-25T13:41:56.495Z,16.63
2018-03-25T13:44:24.829Z,16.50
2018-03-25T13:46:53.108Z,17.03
2018-03-25T13:49:21.400Z,15.80
2018-03-25T13:51:49.712Z,17.77
2018-03-25T13:54:18.010Z,17.07
2018-03-25T13:56:46.630Z,17.03
2018-03-25T13:59:14.958Z,16.80
2018-03-25T14:01:43.971Z,17.43
2018-03-25T14:04:12.276Z,17.90
2018-03-25T14:06:41.547Z,16.53
2018-03-25T14:09:09.819Z,16.70
2018-03-25T14:11:38.128Z,17.27
2018-03-25T14:14:06.419Z,17.00
2018-03-25T14:16:34.696Z,16.87
2018-03-25T14:19:03.002Z,16.03
2018-03-25T14:21:31.310Z,16.60
2018-03-25T14:24:00.729Z,16.70
2018-03-25T14:26:29.034Z,17.50
2018-03-25T14:28:57.423Z,17.40
2018-03-25T14:31:25.699Z,17.50
2018-03-25T14:33:54.009Z,17.77
2018-03-25T14:36:22.364Z,17.20
2018-03-25T14:38:51.499Z,17.20
2018-03-25T14:41:19.866Z,17.03
2018-03-25T14:43:48.151Z,17.97
2018-03-25T14:46:16.497Z,18.13
2018-03-25T14:48:45.582Z,18.13
2018-03-25T14:51:14.624Z,17.53
2018-03-25T14:53:42.920Z,17.77
2018-03-25T14:56:11.176Z,17.90
2018-03-25T14:58:39.533Z,18.10
2018-03-25T15:01:07.890Z,18.40
2018-03-25T15:03:36.202Z,18.93
2018-03-25T15:06:04.544Z,20.03
2018-03-25T15:08:32.826Z,17.97
2018-03-25T15:11:01.151Z,19.63
2018-03-25T15:13:30.642Z,20.20
2018-03-25T15:15:58.897Z,19.13
2018-03-25T15:18:27.515Z,19.20
2018-03-25T15:20:55.824Z,18.93
2018-03-25T15:23:24.138Z,18.53
2018-03-25T15:25:52.418Z,18.53
2018-03-25T15:28:20.803Z,20.07
2018-03-25T15:30:49.120Z,19.27
2018-03-25T15:33:17.446Z,18.67
2018-03-25T15:35:45.731Z,20.50
2018-03-25T15:38:14.292Z,20.27
2018-03-25T15:40:42.581Z,18.70
2018-03-25T15:43:10.866Z,18.37
2018-03-25T15:45:39.744Z,19.30
2018-03-25T15:48:08.803Z,18.00
2018-03-25T15:50:38.327Z,18.13
2018-03-25T15:53:07.425Z,17.83
2018-03-25T15:55:35.710Z,17.90
2018-03-25T15:58:03.997Z,18.70
2018-03-25T16:00:32.628Z,18.80
2018-03-25T16:03:00.920Z,19.47
2018-03-25T16:05:29.163Z,18.70
2018-03-25T16:07:57.454Z,19.47
2018-03-25T16:10:25.745Z,19.57
2018-03-25T16:12:54.120Z,19.30
2018-03-25T16:15:22.392Z,18.63
2018-03-25T16:17:50.680Z,19.20
2018-03-25T16:20:18.977Z,17.77
2018-03-25T16:22:47.265Z,18.93
2018-03-25T16:25:15.572Z,18.67
2018-03-25T16:27:43.832Z,17.77
2018-03-25T16:30:12.104Z,18.90
2018-03-25T16:32:40.376Z,18.20
2018-03-25T16:35:08.680Z,19.37
2018-03-25T16:37:37.021Z,18.17
2018-03-25T16:40:05.345Z,18.47
2018-03-25T16:42:33.641Z,18.53
2018-03-25T16:45:01.946Z,19.57
2018-03-25T16:47:30.239Z,19.93
2018-03-25T16:49:58.546Z,18.57
2018-03-25T16:52:26.884Z,18.83
2018-03-25T16:54:55.168Z,17.77
2018-03-25T16:57:23.525Z,17.90
2018-03-25T16:59:51.802Z,18.03
2018-03-25T17:02:21.417Z,18.83
2018-03-25T17:04:50.508Z,16.93
2018-03-25T17:07:18.726Z,16.10
2018-03-25T17:09:47.047Z,16.53
2018-03-25T17:12:15.400Z,15.77
2018-03-25T17:14:44.434Z,16.33
2018-03-25T17:17:13.346Z,15.97
2018-03-25T17:19:42.893Z,17.43
2018-03-25T17:22:11.286Z,19.20
2018-03-25T17:24:40.553Z,16.83
2018-03-25T17:27:09.658Z,15.50
2018-03-25T17:29:37.929Z,15.07
2018-03-25T17:32:06.239Z,16.10
2018-03-25T17:34:34.500Z,16.43
2018-03-25T17:37:02.789Z,15.93
2018-03-25T17:39:31.073Z,15.77
2018-03-25T17:42:00.113Z,16.90
2018-03-25T17:44:28.404Z,17.40
2018-03-25T17:46:56.700Z,15.33
2018-03-25T17:49:25.073Z,14.97
2018-03-25T17:51:53.349Z,16.37
2018-03-25T17:54:21.661Z,15.17
2018-03-25T17:56:50.697Z,17.43
2018-03-25T17:59:19.017Z,16.63
2018-03-25T18:01:47.292Z,16.67
2018-03-25T18:04:15.630Z,15.97
2018-03-25T18:06:44.038Z,15.90
2018-03-25T18:09:12.358Z,15.63
2018-03-25T18:11:41.434Z,17.17
2018-03-25T18:14:09.836Z,17.20
2018-03-25T18:16:43.439Z,16.67
2018-03-25T18:19:11.737Z,16.43
2018-03-25T18:21:40.092Z,16.93
2018-03-25T18:24:08.607Z,17.47
2018-03-25T18:26:36.933Z,15.37
2018-03-25T18:29:05.299Z,17.27
2018-03-25T18:31:33.632Z,17.07
2018-03-25T18:34:01.901Z,15.80
2018-03-25T18:36:31.148Z,17.80
2018-03-25T18:39:00.295Z,16.97
2018-03-25T18:41:29.384Z,16.17
2018-03-25T18:43:57.837Z,15.70
2018-03-25T18:46:26.931Z,16.20
2018-03-25T18:48:55.243Z,17.30
2018-03-25T18:51:23.536Z,16.00
2018-03-25T18:53:51.821Z,17.10
2018-03-25T18:56:20.193Z,16.40
2018-03-25T18:58:48.733Z,16.10
2018-03-25T19:01:17.896Z,17.80
2018-03-25T19:03:46.222Z,16.83
2018-03-25T19:06:14.501Z,16.37
2018-03-25T19:08:42.791Z,16.97
2018-03-25T19:11:11.096Z,16.20
2018-03-25T19:13:39.403Z,17.73
2018-03-25T19:16:07.692Z,17.60
2018-03-25T19:18:36.716Z,16.83
2018-03-25T19:21:04.999Z,16.73
2018-03-25T19:23:33.254Z,17.33
2018-03-25T19:26:01.521Z,16.73
2018-03-25T19:28:29.849Z,16.00
2018-03-25T19:30:58.118Z,16.27
2018-03-25T19:33:27.161Z,16.20
2018-03-25T19:35:57.066Z,17.30
2018-03-25T19:38:26.112Z,17.13
2018-03-25T19:40:54.395Z,15.80
2018-03-25T19:43:23.813Z,16.57
2018-03-25T19:45:52.296Z,17.70
2018-03-25T19:48:20.635Z,17.17
2018-03-25T19:50:49.493Z,17.37
2018-03-25T19:53:18.462Z,20.60
2018-03-25T19:55:46.752Z,17.23
2018-03-25T19:58:15.034Z,18.57
2018-03-25T20:00:44.087Z,17.87
2018-03-25T20:03:12.413Z,16.70
2018-03-25T20:05:41.440Z,16.30
2018-03-25T20:08:09.716Z,17.17
2018-03-25T20:10:37.972Z,17.07
2018-03-25T20:13:06.375Z,17.20
2018-03-25T20:15:34.638Z,17.67
2018-03-25T20:18:03.018Z,16.53
2018-03-25T20:20:31.301Z,17.20
2018-03-25T20:22:59.584Z,17.87
2018-03-25T20:25:27.883Z,17.23
2018-03-25T20:27:56.293Z,17.70
2018-03-25T20:30:25.338Z,17.40
2018-03-25T20:32:53.693Z,16.50
2018-03-25T20:35:21.955Z,17.87
2018-03-25T20:37:50.225Z,16.37
2018-03-25T20:40:18.519Z,16.73
2018-03-25T20:42:46.790Z,16.47
2018-03-25T20:45:15.072Z,17.17
2018-03-25T20:47:43.399Z,15.97
2018-03-25T20:50:11.664Z,17.23
2018-03-25T20:52:39.946Z,16.67
2018-03-25T20:55:08.256Z,17.20
2018-03-25T20:57:37.300Z,17.20
2018-03-25T21:00:05.577Z,17.43
2018-03-25T21:02:33.946Z,16.43
2018-03-25T21:05:02.225Z,18.33
2018-03-25T21:07:30.495Z,16.87
2018-03-25T21:09:58.794Z,17.00
2018-03-25T21:12:27.111Z,18.23
2018-03-25T21:14:55.405Z,16.90
2018-03-25T21:17:23.712Z,17.90
2018-03-25T21:19:52.002Z,18.00
2018-03-25T21:22:20.286Z,18.43
2018-03-25T21:24:48.557Z,18.53
2018-03-25T21:27:16.845Z,18.07
2018-03-25T21:29:45.118Z,17.77
2018-03-25T21:32:13.430Z,19.20
2018-03-25T21:34:41.761Z,18.27
2018-03-25T21:37:10.034Z,18.57
2018-03-25T21:39:38.352Z,19.23
2018-03-25T21:42:06.664Z,17.30
2018-03-25T21:44:35.697Z,18.00
2018-03-25T21:47:03.994Z,18.60
2018-03-25T21:49:32.305Z,19.50
2018-03-25T21:52:00.567Z,19.03
2018-03-25T21:54:28.836Z,19.50
2018-03-25T21:56:57.993Z,19.17
2018-03-25T21:59:26.237Z,19.17
2018-03-25T22:01:54.516Z,18.67
2018-03-25T22:04:22.853Z,17.57
2018-03-25T22:06:51.890Z,18.30
2018-03-25T22:09:20.153Z,17.57
2018-03-25T22:11:48.407Z,18.20
2018-03-25T22:14:16.772Z,18.47
2018-03-25T22:16:45.807Z,17.93
2018-03-25T22:19:14.095Z,18.73
2018-03-25T22:21:42.348Z,19.20
2018-03-25T22:24:10.632Z,18.47
2018-03-25T22:26:38.896Z,18.77
2018-03-25T22:29:07.156Z,18.50
2018-03-25T22:31:36.208Z,18.73
2018-03-25T22:34:04.473Z,19.33
2018-03-25T22:36:32.752Z,19.20
2018-03-25T22:39:01.018Z,18.43
2018-03-25T22:41:29.286Z,18.30
2018-03-25T22:43:57.537Z,18.80
2018-03-25T22:46:25.809Z,18.83
2018-03-25T22:48:54.837Z,18.70
2018-03-25T22:51:23.139Z,18.00
2018-03-25T22:53:51.390Z,17.90
2018-03-25T22:56:19.682Z,18.23
2018-03-25T22:58:47.914Z,18.93
2018-03-25T23:01:16.196Z,18.63
2018-03-25T23:03:45.240Z,17.97
2018-03-25T23:06:13.588Z,17.73
2018-03-25T23:08:41.840Z,17.97
2018-03-25T23:11:10.099Z,17.90
2018-03-25T23:13:39.117Z,18.23
2018-03-25T23:16:07.427Z,18.03
2018-03-25T23:18:35.707Z,18.57
2018-03-25T23:21:03.964Z,18.57
2018-03-25T23:23:32.263Z,17.57
2018-03-25T23:26:00.548Z,18.37
2018-03-25T23:28:28.813Z,19.13
2018-03-25T23:30:57.833Z,18.57
2018-03-25T23:33:26.855Z,18.60
2018-03-25T23:35:55.115Z,18.53
2018-03-25T23:38:23.376Z,17.77
2018-03-25T23:40:52.392Z,18.17
2018-03-25T23:43:21.437Z,16.47
2018-03-25T23:45:49.689Z,16.67
2018-03-25T23:48:18.032Z,18.50
2018-03-25T23:50:47.064Z,17.47
2018-03-25T23:53:15.340Z,17.57
2018-03-25T23:55:43.602Z,18.47
2018-03-25T23:58:11.868Z,17.33
